createdAt,value
2022-10-31T00:00:07.382Z,96882.75
2022-10-31T00:01:39.440Z,96877.84
2022-10-31T00:03:11.107Z,96891.56
2022-10-31T00:04:42.749Z,96896.09
2022-10-31T00:06:14.429Z,96890.78
2022-10-31T00:07:46.056Z,96892.94
2022-10-31T00:09:17.704Z,96891.69
2022-10-31T00:10:50.694Z,96886.47
2022-10-31T00:12:22.340Z,96895.72
2022-10-31T00:13:54.006Z,96887.16
2022-10-31T00:15:25.624Z,96888.19
2022-10-31T00:16:57.218Z,96883.75
2022-10-31T00:18:28.843Z,96884.22
2022-10-31T00:20:00.470Z,96885.41
2022-10-31T00:21:32.134Z,96881.84
2022-10-31T00:23:04.167Z,96880.09
2022-10-31T00:24:35.788Z,96883.88
2022-10-31T00:26:08.777Z,96875.47
2022-10-31T00:27:40.358Z,96874.59
2022-10-31T00:29:13.739Z,96875.69
2022-10-31T00:30:45.417Z,96880.38
2022-10-31T00:32:17.004Z,96876.81
2022-10-31T00:33:48.626Z,96877.28
2022-10-31T00:35:20.241Z,96873.16
2022-10-31T00:36:51.877Z,96878.38
2022-10-31T00:38:23.597Z,96879.47
2022-10-31T00:39:55.180Z,96871.00
2022-10-31T00:41:28.245Z,96871.53
2022-10-31T00:43:00.185Z,96876.81
2022-10-31T00:44:32.090Z,96879.00
2022-10-31T00:46:03.868Z,96875.25
2022-10-31T00:47:50.314Z,96874.59
2022-10-31T00:49:22.033Z,96869.16
2022-10-31T00:50:53.654Z,96867.81
2022-10-31T00:52:25.273Z,96867.59
2022-10-31T00:53:56.906Z,96870.81
2022-10-31T00:55:28.502Z,96870.16
2022-10-31T00:57:01.489Z,96868.94
2022-10-31T00:58:33.132Z,96865.72
2022-10-31T01:00:05.356Z,96869.47
2022-10-31T01:01:37.118Z,96866.94
2022-10-31T01:03:08.895Z,96865.03
2022-10-31T01:04:40.537Z,96868.59
2022-10-31T01:06:13.095Z,96867.72
2022-10-31T01:07:44.715Z,96863.50
2022-10-31T01:09:16.343Z,96863.03
2022-10-31T01:10:48.005Z,96863.94
2022-10-31T01:12:21.007Z,96865.72
2022-10-31T01:13:53.272Z,96858.78
2022-10-31T01:15:24.896Z,96859.25
2022-10-31T01:16:56.539Z,96860.59
2022-10-31T01:18:28.227Z,96864.72
2022-10-31T01:19:59.826Z,96865.59
2022-10-31T01:21:31.433Z,96870.38
2022-10-31T01:23:03.065Z,96868.59
2022-10-31T01:24:34.714Z,96873.81
2022-10-31T01:26:08.409Z,96861.72
2022-10-31T01:27:41.397Z,96871.72
2022-10-31T01:29:13.004Z,96865.25
2022-10-31T01:30:44.641Z,96866.38
2022-10-31T01:32:16.252Z,96866.16
2022-10-31T01:33:47.983Z,96857.38
2022-10-31T01:35:19.649Z,96858.47
2022-10-31T01:36:52.360Z,96858.59
2022-10-31T01:38:24.266Z,96866.69
2022-10-31T01:39:55.942Z,96864.59
2022-10-31T01:41:28.776Z,96862.72
2022-10-31T01:43:02.190Z,96862.25
2022-10-31T01:44:55.635Z,96860.16
2022-10-31T01:46:29.734Z,96863.50
2022-10-31T01:48:01.539Z,96858.38
2022-10-31T01:49:35.197Z,96863.25
2022-10-31T01:51:06.963Z,96849.59
2022-10-31T01:52:39.466Z,96865.50
2022-10-31T01:54:12.415Z,96857.81
2022-10-31T01:55:45.204Z,96864.47
2022-10-31T01:57:16.874Z,96862.03
2022-10-31T01:58:49.860Z,96848.69
2022-10-31T02:00:21.617Z,96862.81
2022-10-31T02:01:53.323Z,96857.69
2022-10-31T02:03:25.001Z,96864.16
2022-10-31T02:04:56.602Z,96859.16
2022-10-31T02:06:32.067Z,96858.16
2022-10-31T02:08:04.992Z,96858.16
2022-10-31T02:09:36.718Z,96855.16
2022-10-31T02:11:08.583Z,96863.81
2022-10-31T02:12:40.225Z,96854.81
2022-10-31T02:14:13.202Z,96850.47
2022-10-31T02:15:46.070Z,96859.72
2022-10-31T02:17:17.748Z,96858.13
2022-10-31T02:18:49.376Z,96855.03
2022-10-31T02:20:21.985Z,96855.03
2022-10-31T02:21:55.704Z,96851.38
2022-10-31T02:23:37.184Z,96846.59
2022-10-31T02:25:21.745Z,96850.25
2022-10-31T02:27:00.206Z,96845.03
2022-10-31T02:28:56.232Z,96842.38
2022-10-31T02:30:29.935Z,96842.91
2022-10-31T02:32:05.318Z,96846.34
2022-10-31T02:33:39.300Z,96841.66
2022-10-31T02:35:13.116Z,96857.09
2022-10-31T02:36:47.627Z,96844.75
2022-10-31T02:38:28.093Z,96837.88
2022-10-31T02:40:02.629Z,96842.53
2022-10-31T02:41:36.413Z,96844.03
2022-10-31T02:43:10.089Z,96838.59
2022-10-31T02:44:45.458Z,96843.25
2022-10-31T02:46:20.445Z,96836.59
2022-10-31T02:47:54.092Z,96839.91
2022-10-31T02:49:28.027Z,96839.81
2022-10-31T02:51:00.916Z,96842.81
2022-10-31T02:52:33.537Z,96843.59
2022-10-31T02:54:05.282Z,96841.25
2022-10-31T02:55:50.516Z,96834.03
2022-10-31T02:57:24.318Z,96840.25
2022-10-31T02:58:57.220Z,96832.56
2022-10-31T03:00:28.966Z,96832.81
2022-10-31T03:02:36.899Z,96842.13
2022-10-31T03:04:18.855Z,96839.44
2022-10-31T03:05:53.739Z,96839.00
2022-10-31T03:07:29.276Z,96833.38
2022-10-31T03:09:04.191Z,96840.59
2022-10-31T03:10:37.615Z,96834.34
2022-10-31T03:12:11.487Z,96842.69
2022-10-31T03:13:46.998Z,96833.25
2022-10-31T03:15:20.532Z,96836.13
2022-10-31T03:16:52.743Z,96840.91
2022-10-31T03:18:27.210Z,96839.03
2022-10-31T03:20:00.250Z,96841.69
2022-10-31T03:21:33.923Z,96847.16
2022-10-31T03:23:05.911Z,96845.84
2022-10-31T03:24:39.351Z,96845.59
2022-10-31T03:26:10.936Z,96844.81
2022-10-31T03:27:42.543Z,96839.03
2022-10-31T03:29:15.669Z,96842.16
2022-10-31T03:30:47.292Z,96841.91
2022-10-31T03:32:20.704Z,96843.91
2022-10-31T03:33:52.322Z,96842.06
2022-10-31T03:35:25.421Z,96836.81
2022-10-31T03:36:58.335Z,96838.81
2022-10-31T03:38:30.004Z,96842.69
2022-10-31T03:40:01.953Z,96840.25
2022-10-31T03:41:42.626Z,96840.13
2022-10-31T03:43:15.986Z,96832.34
2022-10-31T03:44:49.753Z,96836.88
2022-10-31T03:46:21.539Z,96842.53
2022-10-31T03:47:53.350Z,96827.63
2022-10-31T03:49:25.004Z,96835.66
2022-10-31T03:51:01.297Z,96835.22
2022-10-31T03:52:34.853Z,96838.38
2022-10-31T03:54:10.087Z,96833.66
2022-10-31T03:55:42.748Z,96831.22
2022-10-31T03:57:16.124Z,96831.69
2022-10-31T03:58:48.857Z,96824.97
2022-10-31T04:00:20.504Z,96827.09
2022-10-31T04:01:54.157Z,96830.09
2022-10-31T04:03:26.801Z,96826.88
2022-10-31T04:04:58.403Z,96820.91
2022-10-31T04:06:31.355Z,96829.31
2022-10-31T04:08:03.617Z,96824.75
2022-10-31T04:09:36.662Z,96815.91
2022-10-31T04:11:08.277Z,96821.44
2022-10-31T04:12:39.909Z,96826.13
2022-10-31T04:14:11.544Z,96815.44
2022-10-31T04:15:43.147Z,96820.47
2022-10-31T04:17:16.762Z,96816.81
2022-10-31T04:18:48.388Z,96815.47
2022-10-31T04:20:20.195Z,96813.25
2022-10-31T04:21:53.122Z,96815.25
2022-10-31T04:23:25.939Z,96818.47
2022-10-31T04:24:57.603Z,96813.34
2022-10-31T04:26:29.278Z,96808.00
2022-10-31T04:28:01.367Z,96812.34
2022-10-31T04:29:33.125Z,96810.69
2022-10-31T04:31:04.950Z,96807.78
2022-10-31T04:32:36.561Z,96802.34
2022-10-31T04:34:08.437Z,96803.34
2022-10-31T04:35:40.060Z,96802.97
2022-10-31T04:37:13.063Z,96796.56
2022-10-31T04:38:44.680Z,96803.47
2022-10-31T04:40:16.275Z,96799.56
2022-10-31T04:41:47.918Z,96799.09
2022-10-31T04:44:52.102Z,96799.19
2022-10-31T04:46:23.706Z,96794.09
2022-10-31T04:47:55.309Z,96790.66
2022-10-31T04:49:26.942Z,96794.25
2022-10-31T04:51:01.743Z,96799.31
2022-10-31T04:52:39.768Z,96796.13
2022-10-31T04:54:11.419Z,96799.91
2022-10-31T04:55:43.020Z,96798.78
2022-10-31T04:57:14.649Z,96789.88
2022-10-31T04:58:46.298Z,96794.47
2022-10-31T05:00:19.061Z,96797.69
2022-10-31T05:01:50.772Z,96795.47
2022-10-31T05:03:22.573Z,96793.13
2022-10-31T05:04:54.204Z,96793.75
2022-10-31T05:06:25.814Z,96791.75
2022-10-31T05:07:58.819Z,96791.53
2022-10-31T05:09:30.457Z,96794.22
2022-10-31T05:11:04.418Z,96792.03
2022-10-31T05:12:36.438Z,96788.56
2022-10-31T05:14:08.246Z,96786.75
2022-10-31T05:15:39.903Z,96782.34
2022-10-31T05:17:11.501Z,96795.69
2022-10-31T05:18:43.234Z,96787.31
2022-10-31T05:20:15.425Z,96785.97
2022-10-31T05:21:47.043Z,96783.88
2022-10-31T05:23:20.055Z,96780.09
2022-10-31T05:24:51.660Z,96785.00
2022-10-31T05:26:23.247Z,96789.44
2022-10-31T05:27:55.325Z,96780.75
2022-10-31T05:29:27.076Z,96785.66
2022-10-31T05:30:58.660Z,96780.88
2022-10-31T05:32:30.690Z,96778.31
2022-10-31T05:34:02.430Z,96774.00
2022-10-31T05:35:34.127Z,96780.47
2022-10-31T05:37:05.780Z,96766.34
2022-10-31T05:38:38.804Z,96768.09
2022-10-31T05:40:11.554Z,96772.22
2022-10-31T05:41:43.189Z,96773.22
2022-10-31T05:43:14.917Z,96771.09
2022-10-31T05:44:46.581Z,96771.66
2022-10-31T05:46:18.236Z,96771.09
2022-10-31T05:47:53.568Z,96757.66
2022-10-31T05:49:25.218Z,96763.00
2022-10-31T05:50:56.811Z,96757.44
2022-10-31T05:52:28.431Z,96755.66
2022-10-31T05:54:01.447Z,96763.75
2022-10-31T05:55:33.201Z,96762.44
2022-10-31T05:57:04.845Z,96757.22
2022-10-31T05:58:36.492Z,96764.31
2022-10-31T06:00:09.756Z,96761.44
2022-10-31T06:01:41.388Z,96763.53
2022-10-31T06:03:13.098Z,96764.00
2022-10-31T06:04:44.819Z,96763.00
2022-10-31T06:06:16.518Z,96760.53
2022-10-31T06:07:48.136Z,96761.09
2022-10-31T06:09:21.131Z,96759.75
2022-10-31T06:10:54.737Z,96760.53
2022-10-31T06:12:26.379Z,96759.91
2022-10-31T06:13:58.037Z,96753.78
2022-10-31T06:15:29.655Z,96761.53
2022-10-31T06:17:01.232Z,96751.97
2022-10-31T06:18:32.848Z,96753.78
2022-10-31T06:20:05.514Z,96753.00
2022-10-31T06:21:37.129Z,96750.97
2022-10-31T06:23:08.714Z,96752.44
2022-10-31T06:24:41.745Z,96748.56
2022-10-31T06:26:13.410Z,96750.34
2022-10-31T06:27:45.011Z,96747.66
2022-10-31T06:29:16.651Z,96752.56
2022-10-31T06:30:48.333Z,96750.91
2022-10-31T06:32:19.915Z,96748.78
2022-10-31T06:33:51.686Z,96753.88
2022-10-31T06:35:23.317Z,96761.22
2022-10-31T06:36:54.936Z,96759.47
2022-10-31T06:38:26.837Z,96763.53
2022-10-31T06:40:07.980Z,96764.00
2022-10-31T06:41:42.695Z,96756.09
2022-10-31T06:43:15.828Z,96765.44
2022-10-31T06:44:47.831Z,96769.78
2022-10-31T06:46:20.448Z,96764.22
2022-10-31T06:48:15.411Z,96770.13
2022-10-31T06:49:45.416Z,96773.00
2022-10-31T06:51:17.384Z,96768.44
2022-10-31T06:52:52.769Z,96766.22
2022-10-31T06:54:27.048Z,96765.47
2022-10-31T06:56:00.359Z,96767.69
2022-10-31T06:57:32.300Z,96763.78
2022-10-31T06:59:04.202Z,96762.78
2022-10-31T07:00:36.075Z,96762.78
2022-10-31T07:02:09.720Z,96759.22
2022-10-31T07:03:41.720Z,96771.88
2022-10-31T07:05:13.796Z,96771.78
2022-10-31T07:06:50.911Z,96769.00
2022-10-31T07:08:23.701Z,96765.13
2022-10-31T07:09:55.623Z,96763.91
2022-10-31T07:11:28.914Z,96770.00
2022-10-31T07:13:01.851Z,96766.53
2022-10-31T07:14:33.900Z,96761.88
2022-10-31T07:16:07.768Z,96772.22
2022-10-31T07:17:39.802Z,96769.44
2022-10-31T07:19:13.125Z,96769.88
2022-10-31T07:20:45.340Z,96769.00
2022-10-31T07:22:17.241Z,96769.13
2022-10-31T07:23:49.789Z,96773.69
2022-10-31T07:25:21.711Z,96771.22
2022-10-31T07:26:55.131Z,96772.75
2022-10-31T07:28:27.376Z,96770.00
2022-10-31T07:29:59.205Z,96765.47
2022-10-31T07:31:31.320Z,96765.34
2022-10-31T07:33:03.289Z,96771.69
2022-10-31T07:34:35.203Z,96773.56
2022-10-31T07:36:08.046Z,96771.47
2022-10-31T07:37:39.911Z,96779.00
2022-10-31T07:39:11.787Z,96780.13
2022-10-31T07:40:43.704Z,96781.22
2022-10-31T07:42:17.064Z,96779.00
2022-10-31T07:43:49.193Z,96779.56
2022-10-31T07:45:21.562Z,96769.47
2022-10-31T07:46:53.161Z,96780.34
2022-10-31T07:48:25.085Z,96775.69
2022-10-31T07:49:56.827Z,96782.34
2022-10-31T07:51:28.643Z,96784.44
2022-10-31T07:53:01.417Z,96776.91
2022-10-31T07:54:33.187Z,96769.25
2022-10-31T07:56:05.240Z,96773.47
2022-10-31T07:57:38.348Z,96772.69
2022-10-31T07:59:10.142Z,96772.56
2022-10-31T08:00:43.228Z,96774.88
2022-10-31T08:02:15.063Z,96774.56
2022-10-31T08:03:46.995Z,96784.91
2022-10-31T08:05:18.724Z,96774.34
2022-10-31T08:06:50.543Z,96779.78
2022-10-31T08:08:24.694Z,96784.00
2022-10-31T08:09:56.455Z,96787.25
2022-10-31T08:11:28.131Z,96775.34
2022-10-31T08:13:02.147Z,96774.56
2022-10-31T08:14:33.781Z,96776.25
2022-10-31T08:16:08.476Z,96777.47
2022-10-31T08:17:40.084Z,96778.34
2022-10-31T08:19:11.699Z,96778.44
2022-10-31T08:20:43.733Z,96770.13
2022-10-31T08:22:15.345Z,96768.13
2022-10-31T08:23:46.944Z,96770.56
2022-10-31T08:25:18.668Z,96773.88
2022-10-31T08:26:50.287Z,96773.09
2022-10-31T08:28:23.351Z,96785.22
2022-10-31T08:29:55.020Z,96775.03
2022-10-31T08:31:33.102Z,96774.22
2022-10-31T08:33:07.187Z,96777.13
2022-10-31T08:34:38.800Z,96775.22
2022-10-31T08:36:10.428Z,96770.00
2022-10-31T08:37:42.423Z,96766.34
2022-10-31T08:39:14.089Z,96773.91
2022-10-31T08:40:48.949Z,96767.91
2022-10-31T08:42:20.563Z,96765.22
2022-10-31T08:43:53.625Z,96770.31
2022-10-31T08:45:25.300Z,96763.44
2022-10-31T08:46:56.956Z,96762.88
2022-10-31T08:48:28.635Z,96760.00
2022-10-31T08:50:00.263Z,96761.66
2022-10-31T08:51:31.855Z,96762.44
2022-10-31T08:53:05.608Z,96762.78
2022-10-31T08:54:37.799Z,96757.66
2022-10-31T08:56:09.439Z,96760.34
2022-10-31T08:57:41.165Z,96756.53
2022-10-31T08:59:14.323Z,96764.53
2022-10-31T09:00:46.299Z,96756.78
2022-10-31T09:02:18.056Z,96762.66
2022-10-31T09:03:49.831Z,96767.00
2022-10-31T09:05:21.412Z,96767.91
2022-10-31T09:08:46.341Z,96758.66
2022-10-31T09:10:18.103Z,96763.44
2022-10-31T09:11:49.726Z,96760.13
2022-10-31T09:13:21.780Z,96754.78
2022-10-31T09:14:54.947Z,96760.00
2022-10-31T09:16:26.634Z,96754.09
2022-10-31T09:17:58.492Z,96764.34
2022-10-31T09:19:30.423Z,96754.44
2022-10-31T09:21:02.083Z,96755.56
2022-10-31T09:22:33.712Z,96750.56
2022-10-31T09:24:06.277Z,96751.19
2022-10-31T09:25:37.935Z,96751.78
2022-10-31T09:27:10.026Z,96744.75
2022-10-31T09:28:41.712Z,96740.66
2022-10-31T09:30:14.999Z,96744.31
2022-10-31T09:31:46.630Z,96749.66
2022-10-31T09:33:18.386Z,96746.31
2022-10-31T09:34:49.984Z,96744.44
2022-10-31T09:36:21.589Z,96734.72
2022-10-31T09:37:56.493Z,96734.69
2022-10-31T09:39:28.094Z,96734.25
2022-10-31T09:41:05.706Z,96738.38
2022-10-31T09:42:50.303Z,96735.53
2022-10-31T09:44:25.666Z,96737.84
2022-10-31T09:46:02.970Z,96736.84
2022-10-31T09:47:40.760Z,96737.38
2022-10-31T09:49:25.240Z,96744.94
2022-10-31T09:50:58.756Z,96753.75
2022-10-31T09:52:33.829Z,96752.97
2022-10-31T09:54:07.136Z,96750.78
2022-10-31T09:55:41.330Z,96755.63
2022-10-31T09:57:14.816Z,96744.84
2022-10-31T09:58:47.364Z,96744.59
2022-10-31T10:00:20.481Z,96751.06
2022-10-31T10:01:55.612Z,96754.06
2022-10-31T10:03:33.964Z,96756.94
2022-10-31T10:05:06.547Z,96754.06
2022-10-31T10:06:38.745Z,96752.28
2022-10-31T10:08:11.829Z,96753.16
2022-10-31T10:09:43.432Z,96750.28
2022-10-31T10:11:26.474Z,96749.78
2022-10-31T10:13:12.436Z,96742.56
2022-10-31T10:15:07.730Z,96760.97
2022-10-31T10:17:02.495Z,96749.41
2022-10-31T10:18:40.410Z,96746.25
2022-10-31T10:20:21.051Z,96750.72
2022-10-31T10:21:56.898Z,96754.16
2022-10-31T10:23:36.708Z,96745.56
2022-10-31T10:25:20.990Z,96740.03
2022-10-31T10:26:55.796Z,96742.91
2022-10-31T10:28:28.789Z,96740.22
2022-10-31T10:30:03.338Z,96733.28
2022-10-31T10:31:37.831Z,96731.72
2022-10-31T10:33:15.595Z,96728.72
2022-10-31T10:34:48.821Z,96719.31
2022-10-31T10:36:22.655Z,96728.97
2022-10-31T10:37:57.739Z,96712.66
2022-10-31T10:39:31.580Z,96720.94
2022-10-31T10:41:04.661Z,96721.97
2022-10-31T10:42:54.741Z,96721.00
2022-10-31T10:44:44.815Z,96717.50
2022-10-31T10:46:37.672Z,96714.59
2022-10-31T10:48:16.247Z,96723.63
2022-10-31T10:49:50.882Z,96717.03
2022-10-31T10:51:47.046Z,96712.66
2022-10-31T10:53:33.202Z,96721.44
2022-10-31T10:55:09.935Z,96715.38
2022-10-31T10:56:47.461Z,96710.88
2022-10-31T10:58:19.083Z,96711.69
2022-10-31T10:59:51.051Z,96701.50
2022-10-31T11:01:22.771Z,96699.22
2022-10-31T11:02:55.084Z,96689.88
2022-10-31T11:04:32.520Z,96687.22
2022-10-31T11:06:04.608Z,96688.06
2022-10-31T11:07:39.559Z,96697.66
2022-10-31T11:09:11.880Z,96688.75
2022-10-31T11:10:43.487Z,96696.34
2022-10-31T11:12:20.820Z,96690.56
2022-10-31T11:13:55.264Z,96690.22
2022-10-31T11:15:27.088Z,96689.44
2022-10-31T11:17:09.714Z,96688.50
2022-10-31T11:18:43.234Z,96698.06
2022-10-31T11:20:29.193Z,96682.13
2022-10-31T11:22:07.145Z,96679.44
2022-10-31T11:23:38.800Z,96678.41
2022-10-31T11:25:22.449Z,96675.16
2022-10-31T11:27:04.577Z,96669.78
2022-10-31T11:28:36.290Z,96672.47
2022-10-31T11:30:10.698Z,96684.53
2022-10-31T11:31:42.411Z,96686.78
2022-10-31T11:33:18.053Z,96671.69
2022-10-31T11:34:51.614Z,96684.19
2022-10-31T11:36:25.932Z,96679.44
2022-10-31T11:37:59.901Z,96677.56
2022-10-31T11:39:31.695Z,96671.78
2022-10-31T11:41:09.701Z,96673.13
2022-10-31T11:42:42.573Z,96672.47
2022-10-31T11:44:15.930Z,96679.50
2022-10-31T11:45:47.537Z,96675.91
2022-10-31T11:47:27.998Z,96671.91
2022-10-31T11:48:59.604Z,96669.66
2022-10-31T11:50:35.331Z,96670.69
2022-10-31T11:52:09.232Z,96667.38
2022-10-31T11:53:51.321Z,96663.81
2022-10-31T11:55:32.228Z,96673.28
2022-10-31T11:57:04.133Z,96668.28
2022-10-31T11:58:35.811Z,96667.00
2022-10-31T12:00:21.597Z,96665.00
2022-10-31T12:01:54.046Z,96657.09
2022-10-31T12:03:35.150Z,96658.13
2022-10-31T12:05:09.140Z,96647.81
2022-10-31T12:06:41.479Z,96640.03
2022-10-31T12:08:14.526Z,96645.72
2022-10-31T12:09:46.225Z,96650.44
2022-10-31T12:11:37.335Z,96652.53
2022-10-31T12:13:12.633Z,96650.03
2022-10-31T12:14:50.587Z,96645.81
2022-10-31T12:16:25.934Z,96632.47
2022-10-31T12:18:04.490Z,96631.50
2022-10-31T12:19:37.934Z,96635.69
2022-10-31T12:21:16.255Z,96628.28
2022-10-31T12:22:50.458Z,96622.25
2022-10-31T12:24:30.655Z,96619.06
2022-10-31T12:26:08.517Z,96620.50
2022-10-31T12:27:52.574Z,96610.09
2022-10-31T12:29:45.183Z,96609.69
2022-10-31T12:31:25.179Z,96617.31
2022-10-31T12:33:15.704Z,96621.75
2022-10-31T12:34:55.387Z,96620.72
2022-10-31T12:36:33.938Z,96625.25
2022-10-31T12:38:36.099Z,96618.56
2022-10-31T12:40:21.125Z,96615.22
2022-10-31T12:41:54.185Z,96612.09
2022-10-31T12:43:35.645Z,96602.94
2022-10-31T12:45:22.203Z,96610.81
2022-10-31T12:47:03.228Z,96608.50
2022-10-31T12:48:57.557Z,96608.16
2022-10-31T12:50:37.588Z,96599.97
2022-10-31T12:52:32.288Z,96603.41
2022-10-31T12:54:16.925Z,96594.00
2022-10-31T12:55:56.865Z,96588.00
2022-10-31T12:57:30.803Z,96590.44
2022-10-31T12:59:04.100Z,96584.19
2022-10-31T13:00:35.707Z,96575.13
2022-10-31T13:02:14.144Z,96570.59
2022-10-31T13:03:48.091Z,96565.19
2022-10-31T13:05:34.850Z,96569.25
2022-10-31T13:07:09.296Z,96566.94
2022-10-31T13:08:42.759Z,96560.16
2022-10-31T13:10:17.583Z,96560.94
2022-10-31T13:11:52.789Z,96556.34
2022-10-31T13:13:28.269Z,96550.19
2022-10-31T13:15:02.405Z,96559.00
2022-10-31T13:16:35.567Z,96558.34
2022-10-31T13:18:10.982Z,96556.69
2022-10-31T13:19:44.117Z,96552.56
2022-10-31T13:21:19.429Z,96549.97
2022-10-31T13:22:54.100Z,96555.25
2022-10-31T13:24:30.780Z,96548.63
2022-10-31T13:26:04.330Z,96542.66
2022-10-31T13:27:43.071Z,96543.63
2022-10-31T13:29:18.539Z,96542.09
2022-10-31T13:30:50.189Z,96544.03
2022-10-31T13:32:21.887Z,96547.25
2022-10-31T13:33:54.584Z,96545.75
2022-10-31T13:35:30.444Z,96540.22
2022-10-31T13:37:06.462Z,96530.44
2022-10-31T13:38:40.154Z,96527.44
2022-10-31T13:40:16.383Z,96529.00
2022-10-31T13:41:49.103Z,96523.78
2022-10-31T13:43:28.401Z,96525.84
2022-10-31T13:45:12.469Z,96516.09
2022-10-31T13:46:44.212Z,96523.56
2022-10-31T13:48:34.855Z,96517.03
2022-10-31T13:50:18.248Z,96517.09
2022-10-31T13:51:53.505Z,96513.25
2022-10-31T13:53:36.841Z,96509.34
2022-10-31T13:55:20.563Z,96503.63
2022-10-31T13:56:52.647Z,96498.88
2022-10-31T13:58:26.575Z,96492.03
2022-10-31T14:00:00.282Z,96504.56
2022-10-31T14:01:32.863Z,96504.06
2022-10-31T14:03:04.630Z,96504.22
2022-10-31T14:04:38.824Z,96504.69
2022-10-31T14:06:10.888Z,96499.44
2022-10-31T14:07:43.749Z,96501.28
2022-10-31T14:09:24.527Z,96496.97
2022-10-31T14:10:56.180Z,96500.66
2022-10-31T14:12:32.065Z,96495.81
2022-10-31T14:14:09.931Z,96500.69
2022-10-31T14:15:42.523Z,96494.38
2022-10-31T14:17:22.734Z,96498.91
2022-10-31T14:18:59.762Z,96499.44
2022-10-31T14:20:37.829Z,96503.72
2022-10-31T14:22:20.617Z,96500.00
2022-10-31T14:23:54.221Z,96493.06
2022-10-31T14:25:31.907Z,96499.50
2022-10-31T14:27:05.320Z,96497.25
2022-10-31T14:28:36.987Z,96493.75
2022-10-31T14:30:15.775Z,96483.94
2022-10-31T14:31:53.514Z,96483.06
2022-10-31T14:33:26.469Z,96485.75
2022-10-31T14:34:58.124Z,96479.91
2022-10-31T14:36:34.342Z,96486.66
2022-10-31T14:38:24.205Z,96484.47
2022-10-31T14:40:06.495Z,96488.97
2022-10-31T14:41:46.926Z,96481.00
2022-10-31T14:43:35.657Z,96489.19
2022-10-31T14:45:17.974Z,96486.00
2022-10-31T14:46:53.445Z,96479.06
2022-10-31T14:48:39.365Z,96475.94
2022-10-31T14:50:24.262Z,96481.44
2022-10-31T14:51:55.944Z,96465.13
2022-10-31T14:53:28.604Z,96476.97
2022-10-31T14:55:00.214Z,96474.09
2022-10-31T14:56:33.254Z,96467.84
2022-10-31T14:58:07.025Z,96467.28
2022-10-31T14:59:39.339Z,96470.22
2022-10-31T15:01:19.823Z,96473.13
2022-10-31T15:02:59.215Z,96471.28
2022-10-31T15:04:33.491Z,96463.72
2022-10-31T15:06:11.050Z,96455.47
2022-10-31T15:07:49.869Z,96453.72
2022-10-31T15:09:22.781Z,96449.69
2022-10-31T15:10:56.448Z,96456.28
2022-10-31T15:12:28.995Z,96455.97
2022-10-31T15:14:01.023Z,96449.81
2022-10-31T15:15:33.929Z,96455.31
2022-10-31T15:17:06.928Z,96452.00
2022-10-31T15:18:39.237Z,96446.59
2022-10-31T15:20:11.936Z,96458.06
2022-10-31T15:21:45.884Z,96457.91
2022-10-31T15:23:21.375Z,96444.50
2022-10-31T15:24:57.163Z,96448.03
2022-10-31T15:26:30.605Z,96448.31
2022-10-31T15:28:02.442Z,96440.69
2022-10-31T15:29:34.349Z,96442.31
2022-10-31T15:31:06.234Z,96443.41
2022-10-31T15:32:39.204Z,96443.38
2022-10-31T15:34:17.753Z,96433.78
2022-10-31T15:35:56.784Z,96441.94
2022-10-31T15:37:29.250Z,96438.97
2022-10-31T15:39:00.951Z,96433.28
2022-10-31T15:40:32.620Z,96437.00
2022-10-31T15:42:04.264Z,96429.50
2022-10-31T15:43:37.410Z,96436.41
2022-10-31T15:45:17.994Z,96436.66
2022-10-31T15:46:54.416Z,96442.84
2022-10-31T15:48:27.648Z,96444.66
2022-10-31T15:50:00.151Z,96428.47
2022-10-31T15:51:33.949Z,96435.66
2022-10-31T15:53:05.991Z,96436.94
2022-10-31T15:54:41.368Z,96436.03
2022-10-31T15:56:14.190Z,96436.41
2022-10-31T15:57:47.029Z,96445.50
2022-10-31T15:59:20.807Z,96433.97
2022-10-31T16:00:59.221Z,96431.88
2022-10-31T16:02:31.040Z,96426.91
2022-10-31T16:04:06.349Z,96432.72
2022-10-31T16:05:39.012Z,96428.97
2022-10-31T16:07:18.741Z,96424.41
2022-10-31T16:08:53.584Z,96433.09
2022-10-31T16:10:27.005Z,96439.41
2022-10-31T16:12:00.397Z,96435.06
2022-10-31T16:13:33.009Z,96434.97
2022-10-31T16:15:05.757Z,96437.69
2022-10-31T16:16:41.711Z,96434.03
2022-10-31T16:18:13.341Z,96432.63
2022-10-31T16:19:50.484Z,96436.50
2022-10-31T16:21:26.595Z,96436.72
2022-10-31T16:22:58.694Z,96435.94
2022-10-31T16:24:31.654Z,96432.50
2022-10-31T16:26:06.531Z,96433.91
2022-10-31T16:27:38.291Z,96437.50
2022-10-31T16:29:25.604Z,96433.56
2022-10-31T16:30:57.593Z,96429.47
2022-10-31T16:32:31.377Z,96435.09
2022-10-31T16:34:04.779Z,96447.19
2022-10-31T16:35:38.389Z,96445.31
2022-10-31T16:37:11.146Z,96435.53
2022-10-31T16:38:42.816Z,96428.28
2022-10-31T16:40:15.044Z,96426.31
2022-10-31T16:41:47.565Z,96434.50
2022-10-31T16:43:19.824Z,96431.88
2022-10-31T16:44:51.448Z,96434.81
2022-10-31T16:46:24.438Z,96440.16
2022-10-31T16:47:56.404Z,96428.94
2022-10-31T16:49:28.060Z,96427.88
2022-10-31T16:51:07.995Z,96434.31
2022-10-31T16:52:53.972Z,96440.38
2022-10-31T16:54:31.307Z,96437.31
2022-10-31T16:56:04.103Z,96440.31
2022-10-31T16:57:35.756Z,96436.56
2022-10-31T16:59:15.675Z,96436.03
2022-10-31T17:00:47.941Z,96439.81
2022-10-31T17:02:19.866Z,96434.50
2022-10-31T17:03:51.634Z,96443.53
2022-10-31T17:05:29.918Z,96442.91
2022-10-31T17:07:02.888Z,96441.72
2022-10-31T17:08:34.569Z,96447.56
2022-10-31T17:10:07.180Z,96452.63
2022-10-31T17:11:40.983Z,96454.09
2022-10-31T17:13:17.919Z,96451.81
2022-10-31T17:14:50.536Z,96451.97
2022-10-31T17:16:22.129Z,96447.44
2022-10-31T17:17:56.859Z,96452.78
2022-10-31T17:19:28.499Z,96448.38
2022-10-31T17:21:01.523Z,96455.72
2022-10-31T17:22:34.563Z,96447.25
2022-10-31T17:24:06.941Z,96449.22
2022-10-31T17:25:38.904Z,96450.53
2022-10-31T17:27:10.632Z,96448.28
2022-10-31T17:28:42.366Z,96452.19
2022-10-31T17:30:14.125Z,96440.88
2022-10-31T17:31:45.775Z,96442.19
2022-10-31T17:33:17.579Z,96445.53
2022-10-31T17:34:51.698Z,96445.25
2022-10-31T17:36:23.339Z,96437.38
2022-10-31T17:37:56.320Z,96434.94
2022-10-31T17:39:27.940Z,96438.75
2022-10-31T17:40:59.642Z,96436.91
2022-10-31T17:42:31.388Z,96436.06
2022-10-31T17:44:03.108Z,96431.84
2022-10-31T17:45:34.700Z,96432.81
2022-10-31T17:47:06.331Z,96441.84
2022-10-31T17:48:37.982Z,96432.28
2022-10-31T17:50:10.046Z,96438.56
2022-10-31T17:51:41.987Z,96430.22
2022-10-31T17:53:15.063Z,96431.75
2022-10-31T17:54:46.676Z,96437.53
2022-10-31T17:56:18.336Z,96433.91
2022-10-31T17:57:50.030Z,96434.19
2022-10-31T17:59:21.978Z,96434.00
2022-10-31T18:00:53.765Z,96425.31
2022-10-31T18:02:25.556Z,96423.75
2022-10-31T18:03:57.437Z,96426.94
2022-10-31T18:05:29.064Z,96424.78
2022-10-31T18:07:00.713Z,96433.22
2022-10-31T18:08:36.335Z,96436.84
2022-10-31T18:10:08.952Z,96431.09
2022-10-31T18:11:40.575Z,96436.75
2022-10-31T18:13:12.342Z,96430.44
2022-10-31T18:14:48.323Z,96429.34
2022-10-31T18:16:20.309Z,96431.03
2022-10-31T18:17:51.919Z,96436.00
2022-10-31T18:19:23.762Z,96436.13
2022-10-31T18:20:57.413Z,96435.00
2022-10-31T18:22:29.583Z,96426.22
2022-10-31T18:24:03.012Z,96431.38
2022-10-31T18:25:35.108Z,96436.44
2022-10-31T18:27:06.793Z,96434.63
2022-10-31T18:28:38.422Z,96430.50
2022-10-31T18:30:10.784Z,96436.84